Time;durP1;ratioP1;P1;durP2;ratioP2;P2;SDS_P1;SDS_P2;PMS_P1;PMS_P2;Temp;Humidity;BMP_temperature;BMP_pressure;BME280_temperature;BME280_humidity;BME280_pressure;Samples;Min_cycle;Max_cycle;Signal;HPM_P1;HPM_P2
2021/09/10 00:01:57;;;;;;;11.73;10.38;;;22.80;81.70;;;;;;4901507;29;20083;-88
2021/09/10 00:04:22;;;;;;;12.43;10.73;;;22.80;81.60;;;;;;4900465;29;20048;-88
2021/09/10 00:06:49;;;;;;;13.75;11.27;;;22.70;81.50;;;;;;4901003;29;20052;-88
2021/09/10 00:09:16;;;;;;;12.40;10.35;;;22.70;81.70;;;;;;4901342;29;20135;-89
2021/09/10 00:11:41;;;;;;;12.32;10.60;;;22.70;81.80;;;;;;4911104;29;20052;-88
2021/09/10 00:14:07;;;;;;;13.85;10.77;;;22.70;81.90;;;;;;4919883;29;20050;-88
2021/09/10 00:16:32;;;;;;;16.00;10.90;;;22.60;81.80;;;;;;4919630;29;20048;-88
2021/09/10 00:18:58;;;;;;;13.35;11.43;;;22.60;81.80;;;;;;4936208;29;20047;-88
2021/09/10 00:21:23;;;;;;;13.52;11.60;;;22.60;81.90;;;;;;4920028;29;20429;-87
2021/09/10 00:23:49;;;;;;;14.63;11.32;;;22.60;82.10;;;;;;4920083;29;20142;-88
2021/09/10 00:26:15;;;;;;;13.20;10.70;;;22.50;82.10;;;;;;4919019;29;20103;-87
2021/09/10 00:28:40;;;;;;;13.73;11.25;;;22.50;82.20;;;;;;4917130;29;20039;-85
2021/09/10 00:31:06;;;;;;;14.25;11.45;;;22.50;82.00;;;;;;4909115;29;20059;-86
2021/09/10 00:33:34;;;;;;;14.68;10.90;;;22.40;82.00;;;;;;4919603;29;20107;-86
2021/09/10 00:35:59;;;;;;;14.07;10.90;;;22.40;82.20;;;;;;4920737;29;20073;-86
2021/09/10 00:38:25;;;;;;;12.75;10.68;;;22.40;82.40;;;;;;4920629;29;20036;-86
2021/09/10 00:40:50;;;;;;;14.57;11.15;;;22.40;82.40;;;;;;4919175;29;20186;-86
2021/09/10 00:43:16;;;;;;;13.82;11.02;;;22.40;82.80;;;;;;4937335;29;20062;-86
2021/09/10 00:45:46;;;;;;;14.20;10.73;;;22.30;82.70;;;;;;4919793;29;20040;-86
2021/09/10 00:48:13;;;;;;;13.10;10.45;;;22.30;82.80;;;;;;4900779;29;20052;-87
2021/09/10 00:50:41;;;;;;;12.55;10.30;;;22.30;82.90;;;;;;4901018;29;20040;-87
2021/09/10 00:53:06;;;;;;;14.50;10.80;;;22.30;83.10;;;;;;4900843;29;20096;-86
2021/09/10 00:55:33;;;;;;;13.30;11.48;;;22.30;83.00;;;;;;4900447;29;20500;-87
2021/09/10 00:57:59;;;;;;;12.65;11.25;;;22.20;83.00;;;;;;4899824;29;20048;-86
2021/09/10 01:00:25;;;;;;;14.00;11.63;;;22.20;82.90;;;;;;4899618;29;20796;-86
2021/09/10 01:02:50;;;;;;;16.63;11.65;;;22.20;83.00;;;;;;4900055;29;20055;-87
2021/09/10 01:05:16;;;;;;;13.10;10.82;;;22.20;83.20;;;;;;4900344;29;20048;-86
2021/09/10 01:07:42;;;;;;;14.02;11.50;;;22.20;83.10;;;;;;4899655;29;20469;-86
2021/09/10 01:10:17;;;;;;;14.13;11.70;;;22.10;83.40;;;;;;4900926;29;20046;-86
2021/09/10 01:12:43;;;;;;;13.40;11.50;;;22.10;83.40;;;;;;4919407;29;20039;-86
2021/09/10 01:15:09;;;;;;;13.07;11.50;;;22.10;83.30;;;;;;4918733;29;20475;-86
2021/09/10 01:17:38;;;;;;;15.52;12.00;;;22.10;83.40;;;;;;4919052;29;20051;-85
2021/09/10 01:20:08;;;;;;;14.35;12.55;;;22.00;83.20;;;;;;4936121;29;20082;-85
2021/09/10 01:22:34;;;;;;;14.38;11.93;;;22.00;83.00;;;;;;4918424;29;20075;-85
2021/09/10 01:25:03;;;;;;;14.20;12.00;;;22.00;83.20;;;;;;4919180;29;20047;-85
2021/09/10 01:27:28;;;;;;;17.35;12.80;;;22.00;83.10;;;;;;4915484;29;20052;-85
2021/09/10 01:29:54;;;;;;;15.65;13.05;;;22.00;83.30;;;;;;4898991;29;20055;-84
2021/09/10 01:32:20;;;;;;;15.38;12.60;;;22.00;83.30;;;;;;4900372;29;20063;-85
2021/09/10 01:34:45;;;;;;;14.73;12.32;;;21.90;83.20;;;;;;4900266;29;20416;-85
2021/09/10 01:37:11;;;;;;;14.85;13.10;;;21.90;83.20;;;;;;4899697;29;20131;-85
2021/09/10 01:39:36;;;;;;;14.95;12.60;;;21.90;83.30;;;;;;4900941;29;20095;-86
2021/09/10 01:42:02;;;;;;;16.25;13.27;;;21.90;83.10;;;;;;4907360;29;20059;-86
2021/09/10 01:44:28;;;;;;;16.25;13.77;;;21.90;83.00;;;;;;4918257;29;20040;-85
2021/09/10 01:46:53;;;;;;;16.35;13.88;;;21.90;83.10;;;;;;4916185;29;20103;-85
2021/09/10 01:49:19;;;;;;;16.98;13.95;;;21.80;83.00;;;;;;4899957;29;20056;-86
2021/09/10 01:51:44;;;;;;;17.27;13.27;;;21.80;83.20;;;;;;4899571;29;20052;-86
2021/09/10 01:54:10;;;;;;;15.43;13.13;;;21.80;83.10;;;;;;4910801;29;20048;-85
2021/09/10 01:56:35;;;;;;;16.83;13.32;;;21.80;83.40;;;;;;4918269;29;20046;-86
2021/09/10 01:59:01;;;;;;;16.38;14.57;;;21.80;83.20;;;;;;4918982;29;20052;-86
2021/09/10 02:01:30;;;;;;;16.48;13.98;;;21.80;83.10;;;;;;4918813;29;20132;-85
2021/09/10 02:03:57;;;;;;;16.42;13.90;;;21.70;83.30;;;;;;4918253;29;20108;-86
2021/09/10 02:06:22;;;;;;;16.58;13.75;;;21.70;83.10;;;;;;4935588;29;20122;-86
2021/09/10 02:08:48;;;;;;;17.08;14.13;;;21.70;83.50;;;;;;4918466;29;20151;-85
2021/09/10 02:11:13;;;;;;;15.82;14.13;;;21.70;83.40;;;;;;4921322;29;20510;-86
2021/09/10 02:13:39;;;;;;;15.93;13.70;;;21.70;83.60;;;;;;4922277;29;20102;-85
2021/09/10 02:16:05;;;;;;;19.40;15.00;;;21.60;83.30;;;;;;4939035;29;20079;-86
2021/09/10 02:18:32;;;;;;;20.45;14.95;;;21.60;83.70;;;;;;4921449;29;20048;-85
2021/09/10 02:20:58;;;;;;;17.80;14.55;;;21.60;83.90;;;;;;4922131;29;20056;-86
2021/09/10 02:23:23;;;;;;;16.10;14.27;;;21.60;83.50;;;;;;4921825;29;20106;-85
2021/09/10 02:25:49;;;;;;;17.30;14.98;;;21.60;83.50;;;;;;4921015;29;20067;-85
2021/09/10 02:28:14;;;;;;;18.13;15.40;;;21.50;83.40;;;;;;4918453;29;20059;-86
2021/09/10 02:30:40;;;;;;;17.23;14.38;;;21.50;83.20;;;;;;4902802;29;20063;-86
2021/09/10 02:33:05;;;;;;;17.73;15.82;;;21.50;83.40;;;;;;4901849;29;20048;-85
2021/09/10 02:35:31;;;;;;;17.90;14.57;;;21.50;83.90;;;;;;4902343;29;20055;-86
2021/09/10 02:37:57;;;;;;;17.65;14.13;;;21.50;83.40;;;;;;4902538;29;20432;-85
2021/09/10 02:40:22;;;;;;;16.58;14.77;;;21.50;83.30;;;;;;4902067;29;20400;-86
2021/09/10 02:42:49;;;;;;;17.17;14.40;;;21.40;83.40;;;;;;4902466;29;20392;-85
2021/09/10 02:45:15;;;;;;;17.58;15.68;;;21.40;83.20;;;;;;4902512;29;20056;-85
2021/09/10 02:47:40;;;;;;;18.00;15.48;;;21.40;83.30;;;;;;4918222;29;20054;-86
2021/09/10 02:50:07;;;;;;;18.80;15.18;;;21.40;83.50;;;;;;4918519;29;20047;-86
2021/09/10 02:52:36;;;;;;;17.63;14.73;;;21.40;83.70;;;;;;4902229;29;20147;-85
2021/09/10 02:55:04;;;;;;;18.17;15.45;;;21.30;83.50;;;;;;4902500;29;20059;-85
2021/09/10 02:57:29;;;;;;;19.25;15.43;;;21.40;83.80;;;;;;4903287;29;20056;-86
2021/09/10 02:59:55;;;;;;;16.85;15.05;;;21.30;83.70;;;;;;4902118;29;20055;-85
2021/09/10 03:02:21;;;;;;;17.25;14.43;;;21.30;83.40;;;;;;4902869;29;20051;-85
2021/09/10 03:04:47;;;;;;;18.73;15.43;;;21.30;83.30;;;;;;4918221;29;20183;-86
2021/09/10 03:07:14;;;;;;;16.17;14.48;;;21.30;83.40;;;;;;4917067;29;20399;-85
2021/09/10 03:09:40;;;;;;;17.50;14.48;;;21.30;83.60;;;;;;4921727;29;20048;-85
2021/09/10 03:12:06;;;;;;;17.25;15.10;;;21.30;83.70;;;;;;4921352;29;20408;-85
2021/09/10 03:14:31;;;;;;;17.23;14.98;;;21.20;83.80;;;;;;4920601;29;20051;-85
2021/09/10 03:16:58;;;;;;;16.05;13.98;;;21.30;83.80;;;;;;4920852;29;20403;-86
2021/09/10 03:19:28;;;;;;;17.30;14.55;;;21.20;83.10;;;;;;4920893;29;20052;-86
2021/09/10 03:21:53;;;;;;;17.23;14.30;;;21.20;83.40;;;;;;4919142;29;20507;-86
2021/09/10 03:24:19;;;;;;;18.42;16.25;;;21.20;83.70;;;;;;4921605;29;20146;-86
2021/09/10 03:26:45;;;;;;;17.27;14.40;;;21.20;83.80;;;;;;4937751;29;20048;-85
2021/09/10 03:29:12;;;;;;;17.23;15.38;;;21.20;83.90;;;;;;4937238;29;20069;-86
2021/09/10 03:31:38;;;;;;;17.23;15.15;;;21.10;83.70;;;;;;4920976;29;20143;-86
2021/09/10 03:34:04;;;;;;;16.67;13.90;;;21.10;83.60;;;;;;4921072;29;20139;-86
2021/09/10 03:36:30;;;;;;;17.13;15.30;;;21.10;83.70;;;;;;4920309;29;20478;-85
2021/09/10 03:38:56;;;;;;;17.25;15.20;;;21.10;83.70;;;;;;4921258;29;20391;-86
2021/09/10 03:41:22;;;;;;;16.27;14.52;;;21.10;84.20;;;;;;4921453;29;20040;-86
2021/09/10 03:43:52;;;;;;;16.38;14.25;;;21.10;84.10;;;;;;4918948;29;20483;-86
2021/09/10 03:46:18;;;;;;;17.63;15.30;;;21.10;84.10;;;;;;4920639;29;20373;-86
2021/09/10 03:48:44;;;;;;;18.90;15.48;;;21.10;83.60;;;;;;4920000;29;20138;-86
2021/09/10 03:51:09;;;;;;;20.80;15.15;;;21.00;83.70;;;;;;4919387;29;20400;-86
2021/09/10 03:53:35;;;;;;;16.98;15.18;;;21.00;84.00;;;;;;4919833;29;20035;-86
2021/09/10 03:56:00;;;;;;;24.10;19.77;;;21.00;83.80;;;;;;4918058;29;20500;-86
2021/09/10 03:58:26;;;;;;;16.63;14.82;;;21.00;84.50;;;;;;4920458;29;20202;-86
2021/09/10 04:00:51;;;;;;;18.08;15.30;;;21.00;84.80;;;;;;4920242;29;20043;-86
2021/09/10 04:03:17;;;;;;;19.10;16.90;;;21.00;85.00;;;;;;4919011;29;20051;-86
2021/09/10 04:05:42;;;;;;;18.00;16.13;;;21.00;85.10;;;;;;4919933;29;20054;-86
2021/09/10 04:08:08;;;;;;;19.77;15.07;;;21.00;85.30;;;;;;4937459;29;20079;-86
2021/09/10 04:10:34;;;;;;;18.92;16.60;;;20.90;84.80;;;;;;4920013;29;20400;-86
2021/09/10 04:13:00;;;;;;;18.00;15.88;;;20.90;84.90;;;;;;4917423;29;20044;-86
2021/09/10 04:15:26;;;;;;;18.73;15.60;;;20.90;84.60;;;;;;4902590;29;20050;-87
2021/09/10 04:17:52;;;;;;;19.27;16.75;;;20.90;84.70;;;;;;4936548;29;20444;-87
2021/09/10 04:20:17;;;;;;;18.30;16.27;;;20.80;85.00;;;;;;4918599;29;20039;-84
2021/09/10 04:22:43;;;;;;;19.60;16.77;;;20.80;84.90;;;;;;4918383;29;20055;-84
2021/09/10 04:25:09;;;;;;;19.23;17.15;;;20.80;85.10;;;;;;4918398;29;20032;-85
2021/09/10 04:27:35;;;;;;;22.63;19.27;;;20.80;85.10;;;;;;4918686;29;20043;-85
2021/09/10 04:30:02;;;;;;;17.73;15.82;;;20.80;84.90;;;;;;4916769;29;20462;-85
2021/09/10 04:32:28;;;;;;;18.60;15.73;;;20.80;85.20;;;;;;4910100;29;20048;-85
2021/09/10 04:34:54;;;;;;;19.60;17.17;;;20.80;84.70;;;;;;4920211;29;20431;-87
2021/09/10 04:37:19;;;;;;;21.77;17.63;;;20.80;85.10;;;;;;4920009;29;20102;-84
2021/09/10 04:39:45;;;;;;;25.52;21.02;;;20.70;84.80;;;;;;4930798;29;20052;-91
2021/09/10 04:42:10;;;;;;;19.75;15.88;;;20.70;85.20;;;;;;4937711;29;20047;-90
2021/09/10 04:44:36;;;;;;;20.60;17.67;;;20.70;84.80;;;;;;4921116;29;20078;-91
2021/09/10 04:47:02;;;;;;;19.38;16.70;;;20.70;85.00;;;;;;4920534;29;20055;-87
2021/09/10 04:49:28;;;;;;;18.92;15.90;;;20.70;85.20;;;;;;4920468;29;20104;-89
2021/09/10 04:51:53;;;;;;;18.70;16.58;;;20.60;84.40;;;;;;4919399;29;20047;-91
2021/09/10 04:54:19;;;;;;;20.13;16.38;;;20.60;84.60;;;;;;4936397;29;20043;-90
2021/09/10 04:56:45;;;;;;;21.42;17.95;;;20.60;84.50;;;;;;4916668;29;20056;-89
2021/09/10 04:59:11;;;;;;;18.88;16.88;;;20.50;85.00;;;;;;4916991;29;20048;-90
2021/09/10 05:01:37;;;;;;;19.60;17.02;;;20.50;84.80;;;;;;4921314;29;20055;-89
2021/09/10 05:04:03;;;;;;;23.10;18.85;;;20.50;84.90;;;;;;4919837;29;20048;-85
2021/09/10 05:06:29;;;;;;;24.77;21.40;;;20.50;84.70;;;;;;4918843;29;20055;-86
2021/09/10 05:08:55;;;;;;;26.13;22.63;;;20.40;84.60;;;;;;4919293;29;20447;-86
2021/09/10 05:11:21;;;;;;;25.52;22.75;;;20.40;84.60;;;;;;4920250;29;20387;-87
2021/09/10 05:13:46;;;;;;;25.75;22.17;;;20.40;85.00;;;;;;4919201;29;20135;-86
2021/09/10 05:16:12;;;;;;;23.88;21.02;;;20.40;85.30;;;;;;4920000;29;20475;-87
2021/09/10 05:18:37;;;;;;;23.95;21.20;;;20.40;85.30;;;;;;4936348;29;20044;-86
2021/09/10 05:21:03;;;;;;;23.00;20.48;;;20.40;85.50;;;;;;4919056;29;20134;-86
2021/09/10 05:23:28;;;;;;;22.75;19.95;;;20.40;85.40;;;;;;4919924;29;20048;-85
2021/09/10 05:25:54;;;;;;;24.55;21.75;;;20.30;85.20;;;;;;4918715;29;20054;-86
2021/09/10 05:28:20;;;;;;;24.20;21.27;;;20.30;85.90;;;;;;4935255;29;20048;-86
2021/09/10 05:30:45;;;;;;;23.00;20.35;;;20.30;86.50;;;;;;4918230;29;20063;-86
2021/09/10 05:33:11;;;;;;;22.67;20.27;;;20.30;86.60;;;;;;4919456;29;20051;-86
2021/09/10 05:35:37;;;;;;;22.48;19.90;;;20.30;86.60;;;;;;4917755;29;20054;-86
2021/09/10 05:38:02;;;;;;;23.95;21.25;;;20.30;86.70;;;;;;4919278;29;20051;-86
2021/09/10 05:40:28;;;;;;;24.33;20.95;;;20.30;87.00;;;;;;4919104;29;20071;-86
2021/09/10 05:42:53;;;;;;;23.08;19.58;;;20.20;86.80;;;;;;4918170;29;20110;-85
2021/09/10 05:45:19;;;;;;;24.27;20.13;;;20.20;86.20;;;;;;4920512;29;20122;-87
2021/09/10 05:47:44;;;;;;;21.88;19.60;;;20.20;86.80;;;;;;4922271;29;20393;-86
2021/09/10 05:50:10;;;;;;;23.10;20.00;;;20.20;86.10;;;;;;4922071;29;20078;-86
2021/09/10 05:52:36;;;;;;;22.13;19.73;;;20.20;86.60;;;;;;4922451;29;20102;-87
2021/09/10 05:55:02;;;;;;;23.20;20.52;;;20.20;86.80;;;;;;4922896;29;20108;-86
2021/09/10 05:57:28;;;;;;;29.42;24.50;;;20.20;86.70;;;;;;4921519;29;20134;-86
2021/09/10 05:59:53;;;;;;;25.52;21.45;;;20.10;86.80;;;;;;4922315;29;20444;-86
2021/09/10 06:02:21;;;;;;;33.53;29.52;;;20.20;86.20;;;;;;4922325;29;20047;-86
2021/09/10 06:04:47;;;;;;;22.73;20.00;;;20.20;87.60;;;;;;4921235;29;20051;-86
2021/09/10 06:07:12;;;;;;;26.48;22.25;;;20.20;87.00;;;;;;4922630;29;20391;-86
2021/09/10 06:09:38;;;;;;;25.05;21.13;;;20.10;86.40;;;;;;4921656;29;20056;-86
2021/09/10 06:12:05;;;;;;;28.10;23.30;;;20.10;86.30;;;;;;4922911;29;20047;-86
2021/09/10 06:14:31;;;;;;;22.90;20.40;;;20.10;86.40;;;;;;4920937;29;20099;-86
2021/09/10 06:16:57;;;;;;;23.17;20.58;;;20.20;86.60;;;;;;4921288;29;20164;-86
2021/09/10 06:19:22;;;;;;;26.65;23.42;;;20.10;86.40;;;;;;4921951;29;20063;-85
2021/09/10 06:21:48;;;;;;;40.80;36.25;;;20.10;86.20;;;;;;4921559;29;20044;-86
2021/09/10 06:24:13;;;;;;;41.35;35.15;;;20.10;89.50;;;;;;4921060;29;20058;-86
2021/09/10 06:26:39;;;;;;;42.17;37.58;;;20.10;90.20;;;;;;4921888;29;20048;-85
2021/09/10 06:29:04;;;;;;;41.80;36.28;;;20.10;90.80;;;;;;4921503;29;20043;-86
2021/09/10 06:31:30;;;;;;;45.28;37.83;;;20.10;90.80;;;;;;4920534;29;20052;-86
2021/09/10 06:33:56;;;;;;;32.78;29.15;;;20.20;91.10;;;;;;4921458;29;20048;-86
2021/09/10 06:36:22;;;;;;;39.00;34.42;;;20.10;90.90;;;;;;4921827;29;20107;-86
2021/09/10 06:38:47;;;;;;;48.88;40.22;;;20.10;91.00;;;;;;4916633;29;20060;-84
2021/09/10 06:41:13;;;;;;;52.28;43.05;;;20.10;91.80;;;;;;4902474;29;20127;-86
2021/09/10 06:43:38;;;;;;;41.25;34.28;;;20.20;92.40;;;;;;4937278;29;20047;-86
2021/09/10 06:46:04;;;;;;;44.55;37.83;;;20.20;91.90;;;;;;4917075;29;20036;-86
2021/09/10 06:48:30;;;;;;;44.05;36.53;;;20.10;92.00;;;;;;4915568;29;20059;-86
2021/09/10 06:50:56;;;;;;;28.95;25.75;;;20.10;92.30;;;;;;4920681;29;20098;-85
2021/09/10 06:53:21;;;;;;;34.13;29.08;;;20.10;91.20;;;;;;4917050;29;20040;-86
2021/09/10 06:55:47;;;;;;;48.70;40.17;;;20.10;90.80;;;;;;4902222;29;20100;-86
2021/09/10 06:58:15;;;;;;;33.10;28.45;;;20.10;91.90;;;;;;4902568;29;20092;-86
2021/09/10 07:00:40;;;;;;;32.65;28.30;;;20.10;91.60;;;;;;4903846;29;20056;-86
2021/09/10 07:03:06;;;;;;;36.72;29.83;;;20.10;91.30;;;;;;4920960;29;20058;-86
2021/09/10 07:05:31;;;;;;;33.60;27.90;;;20.20;91.10;;;;;;4920510;29;20230;-86
2021/09/10 07:07:59;;;;;;;37.15;32.08;;;20.20;91.20;;;;;;4917546;29;20048;-86
2021/09/10 07:10:25;;;;;;;38.33;31.35;;;20.20;91.70;;;;;;4920976;29;20052;-84
2021/09/10 07:12:51;;;;;;;37.92;31.55;;;20.30;91.90;;;;;;4919710;29;20048;-86
2021/09/10 07:15:17;;;;;;;41.53;35.70;;;20.30;91.90;;;;;;4920968;29;20086;-85
2021/09/10 07:17:42;;;;;;;38.60;31.80;;;20.30;92.20;;;;;;4920432;29;20111;-86
2021/09/10 07:20:09;;;;;;;38.15;29.75;;;20.30;92.20;;;;;;4916766;29;20127;-86
2021/09/10 07:22:34;;;;;;;48.80;36.03;;;20.30;92.10;;;;;;4901914;29;20044;-86
2021/09/10 07:25:00;;;;;;;43.63;34.53;;;20.40;92.80;;;;;;4902108;29;20060;-83
2021/09/10 07:27:25;;;;;;;42.83;33.78;;;20.40;93.20;;;;;;4903438;29;20054;-82
2021/09/10 07:29:51;;;;;;;41.45;33.67;;;20.40;93.00;;;;;;4920023;29;20488;-81
2021/09/10 07:32:19;;;;;;;41.55;34.92;;;20.40;93.00;;;;;;4937123;29;20064;-81
2021/09/10 07:34:45;;;;;;;43.05;33.97;;;20.40;93.20;;;;;;4919195;29;20098;-82
2021/09/10 07:37:10;;;;;;;43.65;36.35;;;20.50;93.20;;;;;;4916484;29;20067;-82
2021/09/10 07:39:36;;;;;;;41.50;34.30;;;20.50;93.30;;;;;;4901308;29;20408;-83
2021/09/10 07:42:01;;;;;;;44.90;36.75;;;20.50;93.20;;;;;;4934779;29;20138;-83
2021/09/10 07:44:27;;;;;;;48.83;37.95;;;20.60;93.50;;;;;;4919573;29;20495;-85
2021/09/10 07:46:53;;;;;;;42.20;35.65;;;20.60;93.70;;;;;;4936544;29;20389;-83
2021/09/10 07:49:19;;;;;;;40.60;33.38;;;20.60;93.60;;;;;;4917415;29;20052;-84
2021/09/10 07:51:45;;;;;;;45.95;35.65;;;20.60;93.40;;;;;;4901248;29;20400;-85
2021/09/10 07:54:12;;;;;;;46.22;37.13;;;20.60;93.60;;;;;;4901226;29;20054;-83
2021/09/10 07:56:37;;;;;;;49.78;38.08;;;20.70;93.80;;;;;;4900595;29;20048;-83
2021/09/10 07:59:03;;;;;;;49.15;38.40;;;20.70;94.00;;;;;;4901593;29;20500;-88
2021/09/10 08:01:28;;;;;;;45.80;37.10;;;20.70;94.20;;;;;;4918200;29;20056;-85
2021/09/10 08:03:54;;;;;;;41.92;35.13;;;20.70;94.00;;;;;;4903400;29;20126;-86
2021/09/10 08:06:20;;;;;;;48.78;38.60;;;20.70;93.70;;;;;;4920485;29;20043;-86
2021/09/10 08:08:45;;;;;;;46.63;37.22;;;20.80;93.90;;;;;;4919401;29;20051;-87
2021/09/10 08:11:11;;;;;;;40.47;32.70;;;20.70;93.90;;;;;;4919602;29;20060;-86
2021/09/10 08:13:37;;;;;;;53.20;39.20;;;20.70;93.60;;;;;;4919852;29;20094;-86
2021/09/10 08:16:03;;;;;;;51.67;39.80;;;20.80;94.00;;;;;;4920176;29;20449;-86
2021/09/10 08:18:29;;;;;;;47.38;38.83;;;20.80;94.20;;;;;;4918697;29;20050;-87
2021/09/10 08:20:56;;;;;;;53.95;41.05;;;20.80;94.20;;;;;;4920058;29;20051;-87
2021/09/10 08:23:23;;;;;;;41.35;33.58;;;20.80;94.20;;;;;;4918746;29;20070;-86
2021/09/10 08:25:50;;;;;;;56.08;40.22;;;20.90;93.80;;;;;;4919673;29;20526;-87
2021/09/10 08:28:16;;;;;;;49.33;39.28;;;20.90;94.00;;;;;;4919734;29;20063;-87
2021/09/10 08:30:44;;;;;;;55.20;39.85;;;20.90;94.10;;;;;;4918508;29;20195;-87
2021/09/10 08:33:10;;;;;;;53.70;41.13;;;20.90;94.20;;;;;;4919677;29;20051;-89
2021/09/10 08:35:36;;;;;;;46.90;37.60;;;20.90;94.30;;;;;;4919807;29;20074;-88
2021/09/10 08:38:03;;;;;;;54.50;40.85;;;20.90;94.00;;;;;;4918827;29;20500;-87
2021/09/10 08:40:35;;;;;;;48.35;36.92;;;20.90;94.20;;;;;;4919280;29;20047;-86
2021/09/10 08:43:01;;;;;;;54.08;40.05;;;20.90;93.90;;;;;;4919559;29;20075;-86
2021/09/10 08:45:28;;;;;;;52.78;40.58;;;21.00;94.10;;;;;;4918580;29;20055;-87
2021/09/10 08:47:54;;;;;;;50.10;39.50;;;21.00;94.20;;;;;;4918876;29;20040;-87
2021/09/10 08:50:20;;;;;;;58.58;39.72;;;21.00;94.20;;;;;;4919580;29;20108;-87
2021/09/10 08:52:45;;;;;;;46.60;37.90;;;21.00;94.30;;;;;;4918248;29;20095;-86
2021/09/10 08:55:13;;;;;;;51.03;40.53;;;21.00;94.10;;;;;;4919092;29;20051;-86
2021/09/10 08:57:50;;;;;;;57.65;41.58;;;21.00;94.20;;;;;;4919153;29;20051;-86
2021/09/10 09:00:18;;;;;;;48.65;39.40;;;21.00;94.20;;;;;;4918445;29;20488;-87
2021/09/10 09:03:05;;;;;;;58.38;42.53;;;21.10;94.10;;;;;;4919179;29;20048;-86
2021/09/10 09:05:31;;;;;;;53.45;40.78;;;21.10;94.10;;;;;;4918477;29;20098;-86
2021/09/10 09:08:18;;;;;;;51.15;40.83;;;21.10;94.20;;;;;;4919761;29;20075;-86
2021/09/10 09:10:56;;;;;;;51.40;41.28;;;21.10;94.10;;;;;;4919625;29;20130;-87
2021/09/10 09:13:22;;;;;;;48.72;39.97;;;21.10;94.20;;;;;;4918658;29;20487;-86
2021/09/10 09:15:48;;;;;;;47.53;37.72;;;21.20;94.20;;;;;;4919088;29;20458;-88
2021/09/10 09:18:13;;;;;;;59.10;42.85;;;21.20;93.90;;;;;;4936138;29;20075;-87
2021/09/10 09:20:45;;;;;;;55.67;42.95;;;21.20;94.10;;;;;;4920350;29;20054;-85
2021/09/10 09:23:14;;;;;;;56.40;42.17;;;21.30;94.20;;;;;;4922874;29;20554;-86
2021/09/10 09:25:45;;;;;;;61.85;42.53;;;21.30;94.30;;;;;;4922738;29;20056;-85
2021/09/10 09:28:22;;;;;;;55.50;43.15;;;21.30;94.40;;;;;;4922126;29;20063;-85
2021/09/10 09:30:59;;;;;;;58.75;44.22;;;21.30;94.30;;;;;;4921256;29;20059;-87
2021/09/10 09:33:28;;;;;;;59.17;44.67;;;21.40;94.40;;;;;;4922529;29;20055;-86
2021/09/10 09:35:57;;;;;;;54.70;41.55;;;21.40;94.50;;;;;;4921698;29;20446;-85
2021/09/10 09:38:32;;;;;;;57.67;43.13;;;21.40;94.40;;;;;;4922263;29;20086;-85
2021/09/10 09:41:10;;;;;;;49.92;39.17;;;21.40;94.50;;;;;;4921967;29;20475;-85
2021/09/10 09:43:41;;;;;;;53.40;42.00;;;21.40;94.30;;;;;;4922916;29;20062;-85
2021/09/10 09:46:09;;;;;;;53.47;41.78;;;21.50;94.30;;;;;;4922636;29;20040;-85
2021/09/10 09:48:39;;;;;;;49.22;41.05;;;21.50;94.30;;;;;;4938745;29;20484;-85
2021/09/10 09:51:05;;;;;;;49.63;40.75;;;21.50;94.20;;;;;;4922681;29;20055;-82
2021/09/10 09:53:31;;;;;;;48.30;40.10;;;21.60;94.20;;;;;;4938852;29;20041;-82
2021/09/10 09:55:59;;;;;;;47.03;37.13;;;21.60;94.20;;;;;;4921978;29;20059;-81
2021/09/10 09:58:26;;;;;;;49.92;38.55;;;21.60;94.00;;;;;;4939511;29;20047;-81
2021/09/10 10:00:51;;;;;;;44.97;37.75;;;21.70;94.00;;;;;;4938930;29;20161;-82
2021/09/10 10:03:17;;;;;;;46.20;37.55;;;21.70;93.90;;;;;;4919235;29;20404;-82
2021/09/10 10:05:54;;;;;;;42.88;36.22;;;21.70;93.90;;;;;;4938847;29;20503;-83
2021/09/10 10:08:41;;;;;;;44.70;36.42;;;21.80;93.40;;;;;;4922092;29;20138;-82
2021/09/10 10:11:14;;;;;;;41.67;36.17;;;21.80;93.40;;;;;;4922102;29;20051;-83
2021/09/10 10:13:40;;;;;;;43.85;36.92;;;21.80;93.50;;;;;;4922124;29;20051;-82
2021/09/10 10:16:05;;;;;;;40.97;34.35;;;21.90;93.60;;;;;;4921703;29;20051;-82
2021/09/10 10:18:43;;;;;;;38.70;34.13;;;21.90;93.50;;;;;;4922031;29;20511;-82
2021/09/10 10:21:14;;;;;;;37.42;33.33;;;22.00;93.40;;;;;;4922005;29;20048;-82
2021/09/10 10:23:43;;;;;;;38.00;33.92;;;22.00;93.30;;;;;;4937913;29;20050;-83
2021/09/10 10:26:10;;;;;;;39.15;34.25;;;22.00;93.30;;;;;;4922162;29;20059;-83
2021/09/10 10:28:53;;;;;;;37.20;33.20;;;22.10;93.20;;;;;;4921365;29;20079;-83
2021/09/10 10:31:57;;;;;;;37.63;33.03;;;22.10;93.10;;;;;;4920602;29;20107;-83
2021/09/10 10:34:23;;;;;;;36.13;32.40;;;22.10;93.00;;;;;;4921851;29;20052;-83
2021/09/10 10:36:48;;;;;;;39.50;35.30;;;22.20;93.00;;;;;;4921405;29;20055;-82
2021/09/10 10:39:20;;;;;;;37.63;32.80;;;22.20;93.10;;;;;;4920762;29;20139;-82
2021/09/10 10:41:56;;;;;;;36.35;32.40;;;22.20;93.40;;;;;;4938482;29;20403;-82
2021/09/10 10:44:45;;;;;;;34.50;31.00;;;22.20;93.00;;;;;;4937958;29;20055;-82
2021/09/10 10:47:11;;;;;;;36.83;32.83;;;22.20;92.80;;;;;;4918085;29;20048;-83
2021/09/10 10:49:41;;;;;;;36.05;31.92;;;22.20;92.90;;;;;;4933946;29;20103;-83
2021/09/10 10:52:28;;;;;;;34.35;30.65;;;22.30;92.80;;;;;;4917035;29;20524;-83
2021/09/10 10:55:13;;;;;;;34.70;30.55;;;22.30;92.60;;;;;;4920779;29;20048;-84
2021/09/10 10:57:38;;;;;;;34.88;31.13;;;22.30;92.40;;;;;;4920602;29;20082;-84
2021/09/10 11:00:27;;;;;;;32.92;29.45;;;22.30;92.60;;;;;;4937283;29;20068;-83
2021/09/10 11:03:15;;;;;;;32.80;29.27;;;22.30;92.40;;;;;;4927699;29;20048;-83
2021/09/10 11:05:45;;;;;;;33.22;29.80;;;22.30;92.30;;;;;;4916304;29;20052;-83
2021/09/10 11:08:12;;;;;;;34.42;30.83;;;22.40;92.20;;;;;;4902383;29;20056;-83
2021/09/10 11:10:37;;;;;;;37.58;30.10;;;22.50;92.40;;;;;;4917437;29;20063;-82
2021/09/10 11:13:03;;;;;;;33.92;30.35;;;22.50;92.20;;;;;;4901815;29;20040;-84
2021/09/10 11:15:34;;;;;;;33.85;30.23;;;22.50;92.10;;;;;;4920398;29;20047;-83
2021/09/10 11:18:00;;;;;;;31.90;28.58;;;22.60;91.70;;;;;;4920886;29;20131;-83
2021/09/10 11:20:51;;;;;;;32.88;29.50;;;22.60;91.50;;;;;;4920068;29;20051;-84
2021/09/10 11:23:31;;;;;;;31.50;28.05;;;22.60;91.40;;;;;;4917223;29;20552;-85
2021/09/10 11:25:57;;;;;;;32.63;29.17;;;22.70;91.50;;;;;;4902139;29;20441;-84
2021/09/10 11:28:25;;;;;;;30.30;27.23;;;22.70;91.50;;;;;;4900989;29;20116;-84
2021/09/10 11:30:52;;;;;;;31.52;28.13;;;22.80;91.40;;;;;;4901516;29;20067;-84
2021/09/10 11:33:18;;;;;;;32.80;28.67;;;22.90;91.20;;;;;;4901775;29;20052;-86
2021/09/10 11:35:45;;;;;;;34.72;29.10;;;22.90;91.20;;;;;;4920354;29;20154;-83
2021/09/10 11:38:24;;;;;;;33.00;29.45;;;23.00;91.30;;;;;;4901944;29;20079;-84
2021/09/10 11:40:52;;;;;;;33.40;29.67;;;23.00;91.00;;;;;;4920130;29;20052;-84
2021/09/10 11:43:19;;;;;;;32.38;28.98;;;23.00;91.00;;;;;;4916343;29;20052;-84
2021/09/10 11:45:52;;;;;;;32.92;29.55;;;23.10;91.00;;;;;;4901631;29;20051;-83
2021/09/10 11:48:22;;;;;;;;;;;23.10;90.80;;;;;;4901273;29;20056;-83
2021/09/10 11:50:54;;;;;;;32.92;29.42;;;23.00;90.80;;;;;;4918147;29;20433;-83
2021/09/10 11:53:31;;;;;;;30.70;27.50;;;23.10;90.90;;;;;;4920567;29;20048;-84
2021/09/10 11:56:02;;;;;;;28.60;25.77;;;23.10;90.80;;;;;;4936616;29;20404;-83
2021/09/10 11:58:40;;;;;;;31.73;28.52;;;23.20;90.80;;;;;;4920446;29;20079;-84
2021/09/10 12:01:15;;;;;;;30.42;26.80;;;23.30;90.90;;;;;;4919379;29;20379;-83
2021/09/10 12:03:55;;;;;;;31.27;28.20;;;23.40;90.50;;;;;;4917666;29;20047;-84
2021/09/10 12:06:21;;;;;;;29.70;26.70;;;23.40;90.30;;;;;;4919760;29;20434;-82
2021/09/10 12:09:06;;;;;;;30.17;25.65;;;23.40;90.10;;;;;;4919264;29;20058;-82
2021/09/10 12:11:32;;;;;;;26.90;24.10;;;23.40;90.00;;;;;;4919650;29;20052;-82
2021/09/10 12:13:58;;;;;;;29.05;25.95;;;23.50;90.00;;;;;;4920117;29;20047;-82
2021/09/10 12:16:23;;;;;;;28.17;25.48;;;23.50;89.80;;;;;;4936193;29;20091;-82
2021/09/10 12:19:03;;;;;;;27.00;24.10;;;23.50;89.90;;;;;;4919956;29;20043;-82
2021/09/10 12:21:30;;;;;;;25.70;23.10;;;23.50;90.00;;;;;;4936789;29;20486;-82
2021/09/10 12:24:12;;;;;;;25.35;22.60;;;23.60;90.10;;;;;;4919080;29;20054;-83
2021/09/10 12:26:54;;;;;;;25.38;22.77;;;23.60;90.10;;;;;;4919795;29;20130;-82
2021/09/10 12:29:25;;;;;;;24.15;21.55;;;23.70;89.60;;;;;;4920262;29;20047;-82
2021/09/10 12:31:52;;;;;;;24.23;21.70;;;23.70;89.00;;;;;;4918803;29;20055;-83